Time;durP1;ratioP1;P1;durP2;ratioP2;P2;SDS_P1;SDS_P2;PMS_P1;PMS_P2;Temp;Humidity;BMP_temperature;BMP_pressure;BME280_temperature;BME280_humidity;BME280_pressure;Samples;Min_cycle;Max_cycle;Signal;HPM_P1;HPM_P2
2023/07/06 00:01:46;;;;;;;5.70;2.92;;;14.30;99.90;;;;;;5030241;28;20532;-62
2023/07/06 00:04:14;;;;;;;5.57;3.20;;;14.30;99.90;;;;;;5027884;28;20076;-62
2023/07/06 00:06:41;;;;;;;5.80;3.67;;;14.30;99.90;;;;;;5030010;28;20037;-63
2023/07/06 00:09:09;;;;;;;5.00;3.40;;;14.30;99.90;;;;;;5029796;28;20045;-61
2023/07/06 00:11:38;;;;;;;7.22;3.05;;;14.20;99.90;;;;;;5026506;28;20467;-62
2023/07/06 00:14:07;;;;;;;4.85;3.20;;;14.10;99.90;;;;;;5030796;28;20541;-61
2023/07/06 00:16:34;;;;;;;5.05;3.10;;;14.10;99.90;;;;;;5030306;28;20068;-63
2023/07/06 00:19:01;;;;;;;5.65;2.90;;;14.00;99.90;;;;;;5030520;28;20042;-63
2023/07/06 00:21:31;;;;;;;;;;;14.00;99.90;;;;;;5021662;28;20510;-63
2023/07/06 00:23:58;;;;;;;6.05;2.97;;;14.00;99.90;;;;;;5022058;28;19928;-62
2023/07/06 00:26:25;;;;;;;8.38;3.55;;;14.00;99.90;;;;;;5028945;28;20059;-63
2023/07/06 00:28:53;;;;;;;5.85;3.15;;;14.00;99.90;;;;;;5030066;28;20068;-63
2023/07/06 00:31:31;;;;;;;5.53;3.30;;;13.90;99.90;;;;;;5029151;28;20049;-63
2023/07/06 00:34:04;;;;;;;4.72;3.03;;;13.90;99.90;;;;;;5009405;28;20038;-62
2023/07/06 00:36:32;;;;;;;5.70;3.50;;;13.80;99.90;;;;;;5027504;28;20041;-63
2023/07/06 00:39:02;;;;;;;7.00;3.65;;;13.80;99.90;;;;;;5009255;28;20042;-63
2023/07/06 00:41:30;;;;;;;5.85;3.38;;;13.80;99.90;;;;;;5028010;28;20116;-62
2023/07/06 00:43:58;;;;;;;5.70;3.70;;;13.80;99.90;;;;;;5029412;28;20045;-63
2023/07/06 00:46:36;;;;;;;8.88;3.10;;;13.80;99.90;;;;;;5004303;28;20103;-62
2023/07/06 00:49:05;;;;;;;5.20;3.00;;;13.70;99.90;;;;;;5011552;28;20050;-63
2023/07/06 00:51:37;;;;;;;5.28;3.10;;;13.70;99.90;;;;;;5015008;28;20069;-61
2023/07/06 00:54:09;;;;;;;4.40;3.10;;;13.60;99.90;;;;;;5032308;28;20045;-63
2023/07/06 00:56:40;;;;;;;6.05;3.58;;;13.60;99.90;;;;;;5016013;28;20449;-63
2023/07/06 00:59:11;;;;;;;5.60;2.78;;;13.60;99.90;;;;;;5011195;28;20050;-62
2023/07/06 01:01:43;;;;;;;6.90;2.80;;;13.60;99.90;;;;;;5024952;28;20053;-62
2023/07/06 01:04:13;;;;;;;7.47;3.25;;;13.50;99.90;;;;;;5030646;28;20041;-62
2023/07/06 01:06:48;;;;;;;7.72;3.22;;;13.50;99.90;;;;;;5033758;28;20049;-63
2023/07/06 01:09:17;;;;;;;7.35;3.15;;;13.40;99.90;;;;;;5032842;28;20409;-63
2023/07/06 01:11:44;;;;;;;6.20;3.08;;;13.40;99.90;;;;;;5015435;28;20056;-63
2023/07/06 01:14:13;;;;;;;7.10;3.38;;;13.40;99.90;;;;;;5032374;28;20486;-63
2023/07/06 01:16:50;;;;;;;8.68;3.50;;;13.60;99.90;;;;;;5007696;28;20081;-63
2023/07/06 01:19:40;;;;;;;6.50;3.30;;;13.40;99.90;;;;;;5023759;28;20048;-61
2023/07/06 01:22:47;;;;;;;5.47;3.53;;;13.30;99.90;;;;;;5025805;28;20046;-63
2023/07/06 01:25:24;;;;;;;4.57;3.17;;;13.30;99.90;;;;;;5028517;28;20048;-63
2023/07/06 01:28:24;;;;;;;5.88;3.58;;;13.20;99.90;;;;;;5024789;28;20049;-61
2023/07/06 01:31:13;;;;;;;6.88;3.50;;;13.20;99.90;;;;;;5032043;28;20030;-63
2023/07/06 01:33:47;;;;;;;6.03;2.88;;;13.10;99.90;;;;;;5013440;28;20061;-62
2023/07/06 01:36:21;;;;;;;6.13;2.97;;;13.00;99.90;;;;;;5015452;28;20045;-61
2023/07/06 01:38:48;;;;;;;5.65;3.13;;;13.10;99.90;;;;;;5023982;28;20037;-62
2023/07/06 01:41:26;;;;;;;4.57;3.22;;;12.90;99.90;;;;;;5033493;28;20041;-63
2023/07/06 01:43:52;;;;;;;5.10;3.53;;;13.00;99.90;;;;;;5024956;28;20033;-62
2023/07/06 01:46:19;;;;;;;6.95;3.60;;;13.00;99.90;;;;;;5032819;28;20056;-61
2023/07/06 01:48:46;;;;;;;7.38;3.33;;;13.10;99.90;;;;;;5031544;28;20459;-62
2023/07/06 01:51:24;;;;;;;4.97;3.33;;;13.10;99.90;;;;;;5012029;28;20049;-60
2023/07/06 01:53:59;;;;;;;8.35;3.30;;;13.10;99.90;;;;;;5025676;28;20056;-62
2023/07/06 01:56:34;;;;;;;8.88;3.25;;;13.00;99.90;;;;;;5032132;28;20502;-62
2023/07/06 01:59:05;;;;;;;8.18;3.22;;;12.90;99.90;;;;;;5031203;28;20115;-63
2023/07/06 02:01:37;;;;;;;6.70;3.20;;;12.70;99.90;;;;;;5013072;28;20531;-62
2023/07/06 02:04:07;;;;;;;6.75;3.15;;;12.70;99.90;;;;;;5015475;28;20409;-62
2023/07/06 02:06:38;;;;;;;7.03;3.63;;;12.70;99.90;;;;;;5012197;28;20046;-62
2023/07/06 02:09:05;;;;;;;6.53;3.40;;;12.70;99.90;;;;;;5031597;28;20045;-63
2023/07/06 02:11:35;;;;;;;3.55;2.95;;;12.70;99.90;;;;;;5009574;28;20045;-62
2023/07/06 02:14:02;;;;;;;8.15;4.60;;;12.70;99.90;;;;;;4997970;28;20140;-62
2023/07/06 02:16:30;;;;;;;6.25;3.80;;;12.60;99.90;;;;;;5009821;28;20046;-63
2023/07/06 02:19:00;;;;;;;7.68;3.55;;;12.60;99.90;;;;;;5010647;28;20454;-62
2023/07/06 02:21:26;;;;;;;5.75;3.00;;;12.60;99.90;;;;;;5027541;28;20041;-62
2023/07/06 02:23:53;;;;;;;6.60;3.38;;;12.50;99.90;;;;;;5032171;28;20034;-63
2023/07/06 02:26:20;;;;;;;6.75;3.40;;;12.60;99.90;;;;;;5028771;28;20063;-62
2023/07/06 02:28:47;;;;;;;8.20;3.38;;;12.60;99.90;;;;;;5032243;28;20521;-62
2023/07/06 02:31:13;;;;;;;6.47;3.00;;;12.50;99.90;;;;;;5031177;28;20482;-63
2023/07/06 02:33:41;;;;;;;5.30;3.40;;;12.60;99.90;;;;;;5032241;28;20049;-61
2023/07/06 02:36:08;;;;;;;6.15;2.95;;;12.60;99.90;;;;;;5030342;28;20060;-61
2023/07/06 02:38:36;;;;;;;4.53;3.42;;;12.60;99.90;;;;;;4998380;28;20059;-63
2023/07/06 02:41:05;;;;;;;6.88;4.00;;;12.60;99.90;;;;;;5031903;28;20072;-63
2023/07/06 02:43:32;;;;;;;7.88;3.10;;;12.60;99.90;;;;;;5013710;28;20037;-61
2023/07/06 02:46:02;;;;;;;9.80;3.25;;;12.70;99.90;;;;;;5030420;28;20045;-62
2023/07/06 02:48:29;;;;;;;6.05;3.35;;;12.60;99.90;;;;;;5022838;28;20045;-62
2023/07/06 02:50:57;;;;;;;5.53;3.47;;;12.60;99.90;;;;;;5030851;28;20470;-59
2023/07/06 02:53:24;;;;;;;5.95;3.58;;;12.70;99.90;;;;;;5026559;28;20069;-62
2023/07/06 02:55:54;;;;;;;5.10;3.10;;;12.70;99.90;;;;;;5004578;28;20470;-62
2023/07/06 02:58:21;;;;;;;4.75;2.85;;;12.70;99.90;;;;;;5030453;28;20061;-62
2023/07/06 03:00:52;;;;;;;7.38;3.25;;;12.70;99.90;;;;;;5029240;28;20042;-63
2023/07/06 03:03:18;;;;;;;5.93;3.55;;;12.60;99.90;;;;;;5014122;28;20133;-62
2023/07/06 03:05:46;;;;;;;7.70;3.72;;;12.70;99.90;;;;;;5030898;28;20120;-63
2023/07/06 03:08:13;;;;;;;4.85;3.08;;;12.70;99.90;;;;;;5013899;28;20042;-63
2023/07/06 03:10:42;;;;;;;11.43;3.72;;;12.80;99.90;;;;;;5030326;28;20379;-63
2023/07/06 03:13:10;;;;;;;5.28;3.63;;;12.80;99.90;;;;;;5031881;28;20064;-63
2023/07/06 03:15:37;;;;;;;4.57;2.97;;;12.80;99.90;;;;;;5030430;28;20045;-63
2023/07/06 03:18:04;;;;;;;7.82;4.03;;;12.90;99.90;;;;;;5030495;28;20049;-61
2023/07/06 03:20:32;;;;;;;6.47;3.65;;;12.90;99.90;;;;;;4996921;28;20482;-62
2023/07/06 03:22:59;;;;;;;5.35;3.15;;;12.90;99.90;;;;;;5021557;28;20049;-62
2023/07/06 03:25:26;;;;;;;8.63;3.30;;;13.00;99.90;;;;;;5029955;28;20125;-62
2023/07/06 03:27:54;;;;;;;5.70;3.47;;;13.00;99.90;;;;;;5030662;28;20053;-63
2023/07/06 03:30:23;;;;;;;7.82;3.80;;;13.00;99.90;;;;;;5029660;28;20056;-63
2023/07/06 03:32:54;;;;;;;6.15;3.55;;;13.00;99.90;;;;;;5030172;28;20045;-62
2023/07/06 03:35:23;;;;;;;5.63;3.05;;;13.00;99.90;;;;;;5030775;28;20037;-63
2023/07/06 03:37:51;;;;;;;6.60;3.20;;;13.00;99.90;;;;;;5011524;28;20056;-63
2023/07/06 03:40:17;;;;;;;5.45;3.30;;;13.00;99.90;;;;;;5031334;28;20057;-62
2023/07/06 03:42:46;;;;;;;8.77;3.47;;;13.00;99.90;;;;;;5003791;28;20409;-63
2023/07/06 03:45:15;;;;;;;5.80;3.47;;;13.10;99.90;;;;;;5030759;28;20045;-62
2023/07/06 03:47:43;;;;;;;7.68;3.22;;;13.10;99.90;;;;;;5029505;28;20387;-63
2023/07/06 03:50:12;;;;;;;4.55;2.80;;;13.10;99.90;;;;;;5029464;28;20121;-63
2023/07/06 03:52:39;;;;;;;8.43;3.13;;;13.10;99.90;;;;;;5030636;28;20041;-63
2023/07/06 03:55:19;;;;;;;5.63;3.15;;;13.00;99.90;;;;;;5021824;28;20033;-63
2023/07/06 03:57:47;;;;;;;5.18;3.03;;;13.00;99.90;;;;;;5029171;28;20494;-63
2023/07/06 04:00:30;;;;;;;7.50;3.35;;;12.90;99.90;;;;;;5029994;28;20057;-63
2023/07/06 04:03:00;;;;;;;9.40;3.38;;;12.80;99.90;;;;;;5031106;28;20419;-63
2023/07/06 04:05:32;;;;;;;5.93;3.67;;;12.80;99.90;;;;;;5022451;28;20033;-63
2023/07/06 04:08:03;;;;;;;7.72;3.88;;;12.80;99.90;;;;;;5030280;28;20490;-62
2023/07/06 04:10:32;;;;;;;6.65;3.50;;;12.80;99.90;;;;;;5030099;28;20044;-61
2023/07/06 04:12:59;;;;;;;4.82;3.10;;;12.90;99.90;;;;;;5029975;28;20435;-63
2023/07/06 04:15:26;;;;;;;5.55;3.60;;;12.90;99.90;;;;;;5030126;28;20043;-62
2023/07/06 04:17:53;;;;;;;5.28;3.50;;;12.80;99.90;;;;;;5022118;28;20406;-62
2023/07/06 04:20:28;;;;;;;6.70;3.70;;;12.80;99.90;;;;;;5025601;28;20052;-62
2023/07/06 04:22:57;;;;;;;6.25;3.50;;;13.10;99.90;;;;;;5031172;28;20045;-62
2023/07/06 04:25:29;;;;;;;6.57;3.28;;;12.90;99.90;;;;;;5019000;28;20061;-62
2023/07/06 04:28:07;;;;;;;5.57;3.30;;;12.90;99.90;;;;;;5024483;28;20088;-61
2023/07/06 04:30:35;;;;;;;;;;;13.00;99.90;;;;;;5005559;28;20482;-63
2023/07/06 04:33:04;;;;;;;6.55;3.78;;;13.10;99.90;;;;;;5034066;28;20327;-63
2023/07/06 04:35:31;;;;;;;6.78;3.60;;;13.10;99.90;;;;;;5032825;28;20045;-62
2023/07/06 04:37:59;;;;;;;5.72;3.53;;;13.20;99.90;;;;;;5025708;28;20068;-61
2023/07/06 04:40:26;;;;;;;6.15;3.60;;;13.20;99.90;;;;;;5033821;28;20512;-62
2023/07/06 04:42:54;;;;;;;7.38;3.63;;;13.30;99.90;;;;;;5032402;28;20450;-61
2023/07/06 04:45:24;;;;;;;6.07;3.90;;;13.30;99.90;;;;;;5033433;28;20037;-62
2023/07/06 04:47:53;;;;;;;5.18;3.38;;;13.40;99.90;;;;;;5032549;28;20068;-63
2023/07/06 04:50:24;;;;;;;7.10;3.90;;;13.50;99.90;;;;;;5027620;28;20503;-63
2023/07/06 04:52:53;;;;;;;8.07;3.70;;;13.50;99.90;;;;;;5032777;28;20045;-62
2023/07/06 04:55:24;;;;;;;5.05;3.22;;;13.50;99.90;;;;;;5033389;28;20038;-61
2023/07/06 04:57:54;;;;;;;5.88;3.55;;;13.60;99.90;;;;;;5034000;28;20041;-63
2023/07/06 05:00:25;;;;;;;6.35;3.30;;;13.60;99.90;;;;;;5027246;28;20049;-61
2023/07/06 05:03:00;;;;;;;7.72;3.78;;;13.60;99.90;;;;;;5025367;28;20042;-63
2023/07/06 05:05:31;;;;;;;5.60;3.45;;;13.60;99.90;;;;;;5032150;28;20037;-63
2023/07/06 05:07:58;;;;;;;7.60;3.30;;;13.60;99.90;;;;;;5032522;28;20049;-63
2023/07/06 05:10:26;;;;;;;4.68;3.10;;;13.60;99.90;;;;;;5031947;28;20045;-60
2023/07/06 05:12:55;;;;;;;6.25;4.35;;;13.80;99.90;;;;;;5033561;28;20041;-63
2023/07/06 05:15:23;;;;;;;5.82;3.22;;;13.90;99.90;;;;;;5032836;28;20092;-62
2023/07/06 05:17:52;;;;;;;8.65;3.58;;;14.10;99.90;;;;;;5033240;28;20049;-63
2023/07/06 05:20:20;;;;;;;5.93;3.50;;;14.10;99.90;;;;;;5025328;28;20103;-63
2023/07/06 05:22:48;;;;;;;7.95;3.33;;;14.20;99.90;;;;;;5033260;28;20041;-63
2023/07/06 05:25:19;;;;;;;6.43;3.75;;;14.30;99.90;;;;;;5023182;28;20041;-63
2023/07/06 05:27:47;;;;;;;7.65;3.63;;;14.50;99.90;;;;;;5032845;28;20048;-63
2023/07/06 05:30:15;;;;;;;5.57;3.47;;;14.60;99.90;;;;;;5033221;28;20038;-63
2023/07/06 05:32:45;;;;;;;5.53;3.90;;;14.80;99.90;;;;;;5024737;28;20478;-62
2023/07/06 05:35:13;;;;;;;4.78;3.45;;;14.80;99.90;;;;;;5030428;28;20149;-63
2023/07/06 05:37:41;;;;;;;6.47;3.53;;;15.00;99.90;;;;;;5025515;28;20042;-61
2023/07/06 05:40:09;;;;;;;6.35;3.97;;;15.00;99.90;;;;;;5031803;28;20075;-61
2023/07/06 05:42:36;;;;;;;9.15;4.68;;;15.10;99.90;;;;;;5032878;28;20045;-63
2023/07/06 05:45:03;;;;;;;6.25;3.53;;;15.10;99.90;;;;;;5030045;28;20049;-63
2023/07/06 05:47:30;;;;;;;6.90;4.00;;;15.20;99.90;;;;;;5026384;28;20033;-63
2023/07/06 05:49:56;;;;;;;7.50;4.28;;;15.30;99.90;;;;;;5031399;28;20120;-63
2023/07/06 05:52:23;;;;;;;6.18;3.90;;;15.30;99.90;;;;;;5032989;28;20037;-63
2023/07/06 05:54:50;;;;;;;9.25;5.35;;;15.40;99.90;;;;;;5023671;28;20124;-63
2023/07/06 05:57:19;;;;;;;6.78;4.65;;;15.50;99.90;;;;;;5027030;28;20128;-63
2023/07/06 05:59:48;;;;;;;8.35;4.47;;;15.40;99.90;;;;;;5032562;28;20463;-62
2023/07/06 06:02:20;;;;;;;7.63;4.25;;;15.30;99.90;;;;;;5024497;28;20451;-62
2023/07/06 06:04:48;;;;;;;10.18;5.10;;;15.40;99.90;;;;;;5031247;28;20049;-63
2023/07/06 06:07:18;;;;;;;8.07;4.60;;;15.40;99.90;;;;;;5032725;28;20037;-63
2023/07/06 06:09:45;;;;;;;10.13;5.10;;;15.50;99.90;;;;;;5031512;28;20042;-63
2023/07/06 06:12:18;;;;;;;7.10;4.47;;;15.70;99.90;;;;;;5032603;28;20053;-63
2023/07/06 06:14:47;;;;;;;9.27;4.65;;;15.70;99.90;;;;;;5030027;28;20042;-63
2023/07/06 06:17:15;;;;;;;8.02;5.10;;;15.80;99.90;;;;;;5009958;28;20046;-63
2023/07/06 06:19:45;;;;;;;9.05;4.60;;;15.90;99.90;;;;;;5031597;28;20050;-63
2023/07/06 06:22:14;;;;;;;7.53;4.22;;;16.00;99.90;;;;;;5030992;28;20124;-63
2023/07/06 06:24:41;;;;;;;6.57;4.30;;;15.90;99.90;;;;;;5031892;28;20042;-61
2023/07/06 06:27:11;;;;;;;7.32;4.60;;;16.20;99.90;;;;;;5031437;28;20056;-63
2023/07/06 06:29:39;;;;;;;7.68;4.68;;;16.30;99.90;;;;;;5032222;28;20125;-63
2023/07/06 06:32:06;;;;;;;7.22;4.63;;;16.40;99.90;;;;;;5028870;28;20536;-63
2023/07/06 06:34:33;;;;;;;8.15;5.22;;;16.50;99.90;;;;;;5028000;28;20053;-63
2023/07/06 06:37:00;;;;;;;8.00;4.82;;;16.20;99.90;;;;;;5031778;28;20048;-63
2023/07/06 06:39:27;;;;;;;8.30;4.45;;;16.20;99.90;;;;;;5031209;28;20042;-63
2023/07/06 06:41:55;;;;;;;8.85;5.63;;;16.10;99.90;;;;;;5026286;28;20397;-63
2023/07/06 06:44:23;;;;;;;6.72;4.20;;;16.10;99.90;;;;;;5009578;28;20505;-62
2023/07/06 06:46:50;;;;;;;6.93;4.82;;;16.10;99.90;;;;;;5028166;28;20036;-63
2023/07/06 06:49:16;;;;;;;10.50;5.38;;;16.20;99.90;;;;;;5025282;28;20045;-63
2023/07/06 06:51:44;;;;;;;9.43;5.88;;;16.20;99.90;;;;;;5005827;28;20053;-63
2023/07/06 06:54:11;;;;;;;9.68;5.43;;;15.90;99.90;;;;;;5030272;28;20041;-63
2023/07/06 06:56:37;;;;;;;8.35;5.20;;;15.80;99.90;;;;;;5030362;28;20052;-63
2023/07/06 06:59:04;;;;;;;7.10;5.25;;;15.90;99.90;;;;;;5031824;28;20045;-63
2023/07/06 07:01:31;;;;;;;7.65;5.30;;;16.00;99.90;;;;;;5029753;28;20425;-63
2023/07/06 07:04:00;;;;;;;8.40;5.43;;;16.10;99.90;;;;;;5025665;28;20045;-63
2023/07/06 07:06:28;;;;;;;9.43;5.72;;;16.20;99.90;;;;;;5028821;28;20037;-63
2023/07/06 07:08:57;;;;;;;9.10;6.28;;;16.40;99.90;;;;;;5025699;28;20052;-63
2023/07/06 07:11:24;;;;;;;9.95;6.05;;;16.50;99.90;;;;;;5029719;28;20144;-63
2023/07/06 07:13:52;;;;;;;10.10;6.15;;;16.70;99.90;;;;;;5025809;28;20082;-63
2023/07/06 07:16:20;;;;;;;9.25;6.38;;;16.90;99.90;;;;;;5030322;28;20125;-63
2023/07/06 07:18:47;;;;;;;10.75;7.22;;;16.90;99.90;;;;;;5031208;28;20148;-62
2023/07/06 07:21:15;;;;;;;12.98;6.85;;;16.90;99.90;;;;;;5027372;28;20046;-63
2023/07/06 07:23:43;;;;;;;;;;;16.90;99.90;;;;;;5029185;28;20052;-63
2023/07/06 07:26:16;;;;;;;11.90;6.60;;;16.80;99.90;;;;;;5030744;28;19921;-63
2023/07/06 07:28:43;;;;;;;8.70;5.80;;;16.70;99.90;;;;;;5030769;28;20120;-63
2023/07/06 07:31:13;;;;;;;10.55;6.93;;;16.60;99.90;;;;;;5024739;28;20046;-63
2023/07/06 07:33:44;;;;;;;9.68;7.20;;;16.60;99.90;;;;;;5030872;28;20068;-63
2023/07/06 07:36:12;;;;;;;9.77;6.35;;;16.60;99.90;;;;;;5024023;28;20415;-63
2023/07/06 07:38:39;;;;;;;8.70;6.20;;;16.50;99.90;;;;;;5031040;28;20044;-63
2023/07/06 07:41:07;;;;;;;10.63;5.93;;;16.40;99.90;;;;;;5030232;28;20502;-62
2023/07/06 07:43:36;;;;;;;9.52;5.82;;;16.20;99.90;;;;;;5012344;28;20414;-63
2023/07/06 07:46:05;;;;;;;10.73;5.55;;;16.20;99.90;;;;;;5030286;28;20056;-62
2023/07/06 07:48:37;;;;;;;8.73;5.53;;;16.20;99.90;;;;;;5030833;28;20080;-63
2023/07/06 07:51:07;;;;;;;8.00;5.53;;;16.20;99.90;;;;;;5028529;28;20104;-63
2023/07/06 07:53:37;;;;;;;6.53;4.22;;;16.30;99.90;;;;;;5027608;28;20041;-63
2023/07/06 07:56:07;;;;;;;8.82;5.45;;;16.40;99.90;;;;;;5030466;28;20460;-63
2023/07/06 07:58:36;;;;;;;7.15;5.00;;;16.40;99.90;;;;;;5032701;28;20045;-63
2023/07/06 08:01:06;;;;;;;7.72;4.72;;;16.60;99.90;;;;;;5031824;28;20053;-63
2023/07/06 08:03:36;;;;;;;9.65;5.07;;;16.90;99.90;;;;;;5031209;28;20457;-63
2023/07/06 08:06:06;;;;;;;8.10;4.35;;;17.20;99.90;;;;;;5033173;28;20048;-63
2023/07/06 08:08:35;;;;;;;6.32;4.80;;;17.50;99.90;;;;;;5034812;28;20041;-63
2023/07/06 08:11:05;;;;;;;8.50;4.38;;;17.70;99.90;;;;;;5028784;28;20046;-63
2023/07/06 08:13:33;;;;;;;7.78;4.88;;;17.70;99.90;;;;;;5034690;28;20134;-63
2023/07/06 08:16:01;;;;;;;7.72;5.00;;;17.70;99.90;;;;;;5033059;28;20077;-63
2023/07/06 08:18:28;;;;;;;7.03;4.32;;;17.50;99.90;;;;;;5018132;28;20041;-63
2023/07/06 08:20:56;;;;;;;7.22;4.32;;;17.50;99.90;;;;;;5028142;28;20058;-63
2023/07/06 08:23:48;;;;;;;7.30;4.43;;;17.60;99.90;;;;;;5026065;28;20065;-64
2023/07/06 08:26:15;;;;;;;6.45;4.20;;;17.70;99.90;;;;;;5032441;28;20678;-63
2023/07/06 08:28:46;;;;;;;5.88;4.40;;;17.90;99.90;;;;;;5028730;28;20542;-63
2023/07/06 08:31:16;;;;;;;8.60;4.78;;;18.20;99.90;;;;;;5034452;28;20116;-63
2023/07/06 08:33:48;;;;;;;8.40;5.03;;;18.40;99.90;;;;;;5033156;28;20045;-63
2023/07/06 08:36:16;;;;;;;6.85;4.22;;;18.30;99.90;;;;;;5033920;28;20088;-63
2023/07/06 08:38:43;;;;;;;8.60;4.53;;;18.50;99.90;;;;;;5028697;28;20046;-64
2023/07/06 08:41:30;;;;;;;7.13;4.55;;;18.90;99.90;;;;;;5033544;28;20041;-62
2023/07/06 08:44:02;;;;;;;7.45;4.53;;;19.60;99.90;;;;;;5015859;28;20136;-63
2023/07/06 08:46:34;;;;;;;8.98;4.97;;;19.80;99.90;;;;;;5033136;28;20084;-61
2023/07/06 08:49:03;;;;;;;6.80;4.75;;;19.70;99.90;;;;;;5033699;28;20087;-63
2023/07/06 08:51:36;;;;;;;5.78;4.38;;;20.30;99.90;;;;;;5033569;28;20046;-62
2023/07/06 08:54:24;;;;;;;9.88;4.75;;;19.80;99.90;;;;;;5033622;28;20073;-63
2023/07/06 08:56:51;;;;;;;6.72;4.35;;;19.40;99.90;;;;;;5027771;28;20049;-63
2023/07/06 08:59:56;;;;;;;;;;;19.60;99.90;;;;;;5034356;28;20565;-63
2023/07/06 09:02:25;;;;;;;7.88;4.03;;;19.90;99.90;;;;;;4990040;28;19925;-63
2023/07/06 09:04:54;;;;;;;4.95;3.83;;;20.20;99.90;;;;;;4991490;28;20050;-63
2023/07/06 09:07:34;;;;;;;7.82;3.92;;;20.50;99.90;;;;;;4994591;28;20422;-63
2023/07/06 09:10:11;;;;;;;6.80;3.70;;;20.50;99.90;;;;;;5030186;28;20099;-63
2023/07/06 09:12:53;;;;;;;8.75;4.57;;;20.50;99.90;;;;;;5033113;28;20061;-63
2023/07/06 09:15:28;;;;;;;11.52;4.75;;;20.40;99.90;;;;;;5031927;28;20046;-63
2023/07/06 09:18:03;;;;;;;12.23;4.00;;;20.40;99.90;;;;;;5033792;28;20088;-63
2023/07/06 09:20:33;;;;;;;10.48;4.70;;;20.30;99.90;;;;;;5027172;28;20050;-63
2023/07/06 09:23:01;;;;;;;5.63;4.45;;;20.20;99.90;;;;;;5029428;28;20056;-63
2023/07/06 09:25:36;;;;;;;7.78;4.68;;;20.10;99.90;;;;;;5030174;28;20387;-63
2023/07/06 09:28:07;;;;;;;8.73;4.90;;;20.10;99.90;;;;;;5031740;28;20041;-63
2023/07/06 09:30:37;;;;;;;7.63;5.03;;;19.90;99.90;;;;;;5025145;28;20433;-63
2023/07/06 09:33:19;;;;;;;8.60;4.13;;;19.80;99.90;;;;;;5025324;28;20049;-63
2023/07/06 09:35:50;;;;;;;8.60;4.28;;;19.70;99.90;;;;;;5026083;28;20397;-63
2023/07/06 09:38:17;;;;;;;7.30;4.18;;;19.60;99.90;;;;;;5033358;28;20406;-63
2023/07/06 09:40:43;;;;;;;5.25;3.80;;;19.60;99.90;;;;;;5032161;28;20037;-63
2023/07/06 09:43:38;;;;;;;7.60;4.20;;;19.70;99.90;;;;;;5032366;28;20482;-63
2023/07/06 09:46:09;;;;;;;6.60;3.92;;;19.80;99.90;;;;;;5030635;28;20460;-63
2023/07/06 09:48:38;;;;;;;6.45;4.40;;;20.00;99.90;;;;;;5033043;28;20129;-63
2023/07/06 09:51:30;;;;;;;5.95;3.58;;;20.00;99.90;;;;;;5031996;28;20095;-63
2023/07/06 09:54:02;;;;;;;6.00;3.50;;;20.20;99.90;;;;;;5024694;28;20066;-63
2023/07/06 09:56:29;;;;;;;7.53;4.38;;;20.50;99.90;;;;;;5032073;28;20037;-63
2023/07/06 09:58:58;;;;;;;5.72;3.88;;;20.40;99.90;;;;;;5031752;28;20065;-63
2023/07/06 10:01:38;;;;;;;6.70;3.90;;;20.10;99.90;;;;;;5032252;28;20445;-63
2023/07/06 10:04:24;;;;;;;5.78;3.90;;;20.10;99.90;;;;;;5030207;28;20292;-63
2023/07/06 10:07:07;;;;;;;11.40;4.45;;;20.20;99.90;;;;;;5021284;28;20034;-63
2023/07/06 10:09:42;;;;;;;5.03;3.38;;;20.30;99.90;;;;;;5030033;28;20486;-63
2023/07/06 10:12:45;;;;;;;6.85;4.07;;;20.50;99.90;;;;;;5032714;28;20049;-63
2023/07/06 10:15:47;;;;;;;6.85;3.85;;;20.70;99.90;;;;;;4995357;28;20049;-63
2023/07/06 10:18:27;;;;;;;4.88;3.33;;;21.40;99.90;;;;;;5029510;28;20056;-63
2023/07/06 10:21:20;;;;;;;8.32;3.75;;;22.00;99.90;;;;;;5031210;28;20037;-63
2023/07/06 10:24:30;;;;;;;4.07;3.30;;;22.10;99.90;;;;;;5026271;28;20402;-63
2023/07/06 10:27:00;;;;;;;6.53;3.67;;;21.70;99.90;;;;;;5032244;28;20038;-63
2023/07/06 10:29:41;;;;;;;6.20;3.60;;;21.40;99.90;;;;;;5032295;28;20041;-63
2023/07/06 10:32:13;;;;;;;5.90;3.38;;;21.40;99.90;;;;;;5030672;28;20038;-63
2023/07/06 10:34:54;;;;;;;5.55;3.20;;;21.50;99.90;;;;;;5031900;28;20114;-63
2023/07/06 10:37:24;;;;;;;4.85;3.03;;;21.40;99.90;;;;;;5029182;28;20049;-63
2023/07/06 10:39:58;;;;;;;9.98;3.10;;;21.50;99.90;;;;;;5031119;28;20033;-63
2023/07/06 10:42:28;;;;;;;8.63;3.50;;;21.80;99.90;;;;;;5028393;28;20129;-63
2023/07/06 10:44:58;;;;;;;5.53;2.88;;;22.10;99.90;;;;;;5025175;28;20050;-63
2023/07/06 10:47:28;;;;;;;4.60;3.63;;;22.70;99.90;;;;;;5029181;28;20044;-63
2023/07/06 10:50:05;;;;;;;7.78;3.45;;;23.00;99.90;;;;;;5031561;28;20063;-63
2023/07/06 10:52:36;;;;;;;4.63;3.03;;;23.50;99.90;;;;;;5026884;28;20113;-63
2023/07/06 10:55:20;;;;;;;5.03;2.92;;;23.30;99.90;;;;;;5030802;28;20057;-63
2023/07/06 10:57:52;;;;;;;4.30;2.90;;;23.40;99.90;;;;;;5030773;28;20397;-64
2023/07/06 11:00:28;;;;;;;3.67;3.03;;;23.70;99.90;;;;;;5031009;28;20045;-63
2023/07/06 11:02:56;;;;;;;3.42;3.00;;;23.90;99.90;;;;;;5031578;28;20045;-63
2023/07/06 11:05:28;;;;;;;3.83;2.80;;;23.90;99.90;;;;;;5028647;28;20045;-63
2023/07/06 11:08:05;;;;;;;5.25;3.33;;;23.70;99.90;;;;;;5031424;28;20045;-63
2023/07/06 11:10:36;;;;;;;5.25;3.60;;;23.20;99.90;;;;;;5031291;28;20037;-63
2023/07/06 11:13:06;;;;;;;4.35;3.20;;;22.90;99.90;;;;;;5030588;28;20045;-63
2023/07/06 11:15:36;;;;;;;4.50;2.97;;;22.70;99.90;;;;;;5022660;28;20088;-63
2023/07/06 11:18:17;;;;;;;9.10;5.05;;;22.70;99.90;;;;;;5030653;28;20049;-63
2023/07/06 11:21:17;;;;;;;6.57;5.95;;;22.90;99.90;;;;;;5029822;28;20053;-64
2023/07/06 11:23:57;;;;;;;5.03;3.20;;;23.00;99.90;;;;;;5029655;28;20045;-63
2023/07/06 11:26:46;;;;;;;4.07;3.05;;;23.30;99.90;;;;;;5030693;28;20493;-62
2023/07/06 11:29:13;;;;;;;3.80;2.80;;;23.30;99.90;;;;;;5030136;28;20049;-63
2023/07/06 11:31:47;;;;;;;4.93;3.00;;;23.50;99.90;;;;;;5028850;28;20053;-62
2023/07/06 11:34:26;;;;;;;4.25;3.30;;;23.60;99.90;;;;;;5031036;28;20041;-62
2023/07/06 11:37:22;;;;;;;5.03;3.20;;;23.50;99.90;;;;;;5024575;28;20033;-62
2023/07/06 11:39:56;;;;;;;4.97;3.42;;;23.50;99.90;;;;;;5000555;28;20050;-61
2023/07/06 11:42:23;;;;;;;4.88;2.97;;;23.20;99.90;;;;;;5030985;28;20323;-63
2023/07/06 11:44:54;;;;;;;9.30;3.13;;;23.20;99.90;;;;;;5023267;28;20057;-62
2023/07/06 11:47:37;;;;;;;7.05;3.80;;;23.70;99.90;;;;;;5019201;28;20048;-62
2023/07/06 11:50:09;;;;;;;5.05;3.35;;;23.90;99.90;;;;;;5031183;28;20049;-62
2023/07/06 11:52:45;;;;;;;7.63;3.83;;;24.20;99.90;;;;;;5025987;28;20047;-62
2023/07/06 11:55:31;;;;;;;4.32;3.30;;;24.10;99.90;;;;;;5030841;28;20053;-62
2023/07/06 12:01:01;;;;;;;;;;;23.80;99.90;;;;;;5031333;28;20037;-62
2023/07/06 12:03:29;;;;;;;6.30;3.60;;;23.60;99.90;;;;;;5029280;28;19921;-62
2023/07/06 12:06:02;;;;;;;12.40;3.45;;;23.70;99.90;;;;;;5030223;28;20506;-62
2023/07/06 12:08:37;;;;;;;6.57;4.07;;;23.50;99.90;;;;;;5030227;28;20498;-62
2023/07/06 12:11:15;;;;;;;6.82;3.45;;;23.20;99.90;;;;;;5029286;28;20041;-62
2023/07/06 12:13:48;;;;;;;7.50;3.75;;;22.90;99.90;;;;;;5030887;28;20075;-62
2023/07/06 12:16:22;;;;;;;8.70;4.40;;;22.60;99.90;;;;;;5029078;28;20533;-62
2023/07/06 12:19:05;;;;;;;9.43;3.70;;;22.70;99.90;;;;;;5019664;28;20305;-64
2023/07/06 12:21:35;;;;;;;6.88;3.63;;;23.00;99.90;;;;;;5026659;28;20052;-64
2023/07/06 12:24:05;;;;;;;6.80;3.63;;;23.10;99.90;;;;;;5030843;28;20041;-64
2023/07/06 12:26:34;;;;;;;5.45;3.42;;;23.10;99.90;;;;;;5029154;28;20037;-64
2023/07/06 12:29:02;;;;;;;5.57;3.55;;;23.20;99.90;;;;;;5021499;28;20111;-63
2023/07/06 12:31:31;;;;;;;6.03;3.15;;;23.10;99.90;;;;;;5022604;28;20040;-64
2023/07/06 12:34:00;;;;;;;5.93;3.08;;;23.10;99.90;;;;;;5029817;28;20038;-63
2023/07/06 12:36:33;;;;;;;7.82;3.70;;;23.30;99.90;;;;;;5028998;28;20056;-64
2023/07/06 12:39:03;;;;;;;6.72;3.88;;;23.50;99.90;;;;;;5029604;28;20048;-64
2023/07/06 12:41:35;;;;;;;5.75;3.65;;;23.70;99.90;;;;;;5020745;28;20108;-64
2023/07/06 12:44:10;;;;;;;5.45;3.75;;;23.90;99.90;;;;;;5024382;28;20049;-64
2023/07/06 12:46:37;;;;;;;7.68;3.70;;;24.10;99.90;;;;;;5032247;28;20049;-63
2023/07/06 12:49:16;;;;;;;6.13;3.45;;;24.40;99.90;;;;;;5034330;28;20179;-63
2023/07/06 12:51:43;;;;;;;6.03;3.63;;;24.80;99.90;;;;;;5033062;28;20049;-63
2023/07/06 12:54:10;;;;;;;7.85;3.92;;;25.10;99.90;;;;;;5034195;28;20046;-64
2023/07/06 12:56:39;;;;;;;7.68;3.88;;;25.20;99.90;;;;;;5030633;28;20037;-64
2023/07/06 12:59:06;;;;;;;6.50;4.13;;;25.00;99.90;;;;;;5027505;28;20044;-64
2023/07/06 13:01:39;;;;;;;4.90;3.80;;;24.90;99.90;;;;;;5033522;28;20107;-64
2023/07/06 13:04:08;;;;;;;5.13;3.30;;;24.90;99.90;;;;;;5032618;28;20049;-64
2023/07/06 13:06:43;;;;;;;9.88;4.25;;;25.00;99.90;;;;;;5033432;28;20045;-64
2023/07/06 13:09:18;;;;;;;6.15;3.85;;;25.20;99.90;;;;;;5033721;28;20494;-64
2023/07/06 13:11:47;;;;;;;7.53;3.78;;;25.40;99.90;;;;;;5033654;28;20116;-64
2023/07/06 13:14:21;;;;;;;7.95;4.18;;;25.50;99.90;;;;;;5032058;28;20060;-64